Banjul, The Gambia
Current Conditions -  °F | °C
As of 8:00 PM on Monday 26 Jan 2015 (Local Time) from GBYD Reporting Station
Clear Clear  
Wind Chill: 79°   Ceiling: Unl
Heat Index: 79°   Visibility: 6mi
Dew Point: 50°   Wind: 0mph
Humidity: 36%   Direction: NA
Pressure: 29.88"   Gusts: NA
Location:  13.46°N, 16.6°W
Report Text: GBYD 262000Z 00000KT CAVOK 26/10 Q1012
Loading
Personal Weather Stations






























Interactive Weather Map New forecast layout! Learn more

10-Day Weather Forecast

Advertisements
Track Severe Weather on mobile